Volgo-balt 229 — UHZF — position and weather

sailwx.info

Track history (hours):
 
Tides and Currents Weather Stations Pressure Air Temp Water Temp Dewpoint Dewpoint Depression Visibility Wind Speed Wind Dir Waves Ship Positions

Volgo-balt 229

Last reported at 2014-Jul-27 21:26 UTC. Time now 2014-Jul-28 10:27 UTC.
Position N 59°56' E 030°17'.

Length 113 m; draft 2.6 m.

Type: Ship. MMSI: 273336300.

Date/timePositionNaut miles runAvg speedWind from/ knotsBaromVisibWave heightAir tempDewpointWater temp
2014-Jul-27 21:26N 59°56' E 030°17'0 0.0
2014-Jul-27 20:29N 59°56' E 030°17'0 0.0
2014-Jul-27 19:32N 59°56' E 030°17'0 0.0
2014-Jul-27 18:32N 59°56' E 030°17'0 0.0
2014-Jul-27 17:32N 59°56' E 030°17'0 0.0
2014-Jul-27 16:29N 59°56' E 030°17'0 0.0
2014-Jul-27 15:32N 59°56' E 030°17'0 0.0
2014-Jul-27 14:32N 59°56' E 030°17'0 0.0
2014-Jul-27 13:32N 59°56' E 030°17'0 0.0
2014-Jul-27 12:32N 59°56' E 030°17'2 2.3
2014-Jul-27 11:33N 59°54' E 030°14'0 0.0
2014-Jul-27 10:30N 59°54' E 030°14'0 0.0
2014-Jul-27 09:33N 59°54' E 030°14'1 0.9
2014-Jul-27 08:32N 59°55' E 030°15'1 1.3
2014-Jul-27 07:33N 59°55' E 030°13'66 7.8
2014-Jul-26 23:04N 60°08' E 028°03'4 8.0
2014-Jul-26 22:33N 60°09' E 027°55'6 5.7
2014-Jul-26 21:27N 60°09' E 027°42'5 5.9
2014-Jul-26 20:33N 60°06' E 027°33'9 5.9
2014-Jul-26 19:06N 60°02' E 027°19'4 7.8
2014-Jul-26 18:33N 59°60' E 027°11'8 8.0
2014-Jul-26 17:33N 59°58' E 026°56'8 8.4
2014-Jul-26 16:33N 59°59' E 026°39'8 8.2
2014-Jul-26 15:33N 59°57' E 026°23'8 7.9
2014-Jul-26 14:33N 59°54' E 026°08'8 8.2
2014-Jul-26 13:33N 59°52' E 025°52'8 8.4
2014-Jul-26 12:33N 59°50' E 025°36'8 8.5
2014-Jul-26 11:33N 59°49' E 025°19'9 8.5
2014-Jul-26 10:32N 59°47' E 025°03'8 8.6
2014-Jul-26 09:33N 59°45' E 024°46'8 8.4
2014-Jul-26 08:33N 59°43' E 024°30'8 8.4
2014-Jul-26 07:33N 59°41' E 024°14'9 8.5
2014-Jul-26 06:33N 59°38' E 023°58'8 8.1
2014-Jul-26 05:33N 59°36' E 023°43'8 8.1
2014-Jul-26 04:33N 59°33' E 023°28'8 8.4
2014-Jul-26 03:33N 59°30' E 023°12'9 8.7
2014-Jul-26 02:33N 59°27' E 022°56'9 8.6
2014-Jul-26 01:33N 59°25' E 022°40'8 8.4
2014-Jul-26 00:33N 59°20' E 022°26'16 8.2
2014-Jul-25 22:33N 59°10' E 022°01'8 8.2
2014-Jul-25 21:33N 59°04' E 021°49'8 8.0
2014-Jul-25 20:33N 58°59' E 021°38'9 7.9
2014-Jul-25 19:22N 58°53' E 021°23'6 7.7
2014-Jul-25 18:33N 58°51' E 021°12'8 7.9
2014-Jul-25 17:33N 58°47' E 020°58'8 8.0
2014-Jul-25 16:33N 58°44' E 020°45'7 6.7
2014-Jul-25 15:32N 58°40' E 020°34'8 8.3
2014-Jul-25 14:33N 58°36' E 020°20'8 8.0
2014-Jul-25 13:33N 58°33' E 020°06'8 7.8
2014-Jul-25 12:33N 58°29' E 019°53'8 7.6
2014-Jul-25 11:33N 58°25' E 019°41'8 7.7
2014-Jul-25 10:33N 58°21' E 019°28'8 7.8
2014-Jul-25 09:33N 58°17' E 019°15'8 7.9
2014-Jul-25 08:33N 58°13' E 019°03'8 8.0
2014-Jul-25 07:33N 58°08' E 018°50'8 7.9
2014-Jul-25 06:33N 58°04' E 018°38'8 8.2
2014-Jul-25 05:33N 57°59' E 018°25'8 8.0
2014-Jul-25 04:33N 57°55' E 018°13'8 8.2
2014-Jul-25 03:33N 57°50' E 017°60'9 8.2
2014-Jul-25 02:29N 57°45' E 017°46'8 8.2
2014-Jul-25 01:33N 57°41' E 017°35'8 8.1
2014-Jul-25 00:33N 57°36' E 017°23'8 8.0
2014-Jul-24 23:33N 57°31' E 017°10'8 8.1
2014-Jul-24 22:33N 57°26' E 016°60'8 8.2
2014-Jul-24 21:33N 57°19' E 016°50'8 8.0
2014-Jul-24 20:33N 57°13' E 016°41'8 7.5
2014-Jul-24 19:33N 57°07' E 016°33'1 0.6
2014-Jul-24 18:32N 57°06' E 016°33'0 0.0
2014-Jul-24 17:32N 57°06' E 016°33'0 0.0
2014-Jul-24 16:32N 57°06' E 016°33'0 0.0
2014-Jul-24 15:32N 57°06' E 016°33'0 0.0
2014-Jul-24 14:32N 57°06' E 016°33'0 0.0
2014-Jul-24 13:32N 57°06' E 016°33'0 0.0
2014-Jul-24 12:32N 57°06' E 016°33'0 0.0
2014-Jul-24 11:32N 57°06' E 016°33'0 0.0
2014-Jul-24 10:32N 57°06' E 016°33'0 0.0
2014-Jul-24 09:32N 57°06' E 016°33'0 0.0
2014-Jul-24 08:32N 57°06' E 016°33'0 0.0
2014-Jul-24 07:32N 57°06' E 016°33'0 0.0
2014-Jul-24 06:32N 57°06' E 016°33'0 0.0
2014-Jul-24 05:32N 57°06' E 016°33'1 1.0
2014-Jul-24 04:34N 57°07' E 016°33'5 5.2
2014-Jul-24 03:33N 57°11' E 016°38'5 5.1
2014-Jul-24 02:34N 57°15' E 016°44'8 8.0
2014-Jul-24 01:34N 57°22' E 016°53'8 8.0
2014-Jul-24 00:33N 57°28' E 017°02'8 7.9
2014-Jul-23 23:34N 57°33' E 017°14'8 8.1
2014-Jul-23 22:34N 57°37' E 017°26'8 8.0
2014-Jul-23 21:34N 57°42' E 017°38'8 7.9
2014-Jul-23 20:33N 57°46' E 017°51'8 7.9
2014-Jul-23 19:33N 57°51' E 018°03'8 7.9
2014-Jul-23 18:33N 57°55' E 018°15'8 8.1
2014-Jul-23 17:34N 58°00' E 018°27'8 8.2
2014-Jul-23 16:33N 58°05' E 018°40'8 8.3
2014-Jul-23 15:33N 58°09' E 018°53'8 8.3
2014-Jul-23 14:33N 58°14' E 019°06'8 8.3
2014-Jul-23 13:34N 58°19' E 019°19'8 8.1
2014-Jul-23 12:34N 58°24' E 019°32'8 8.1
2014-Jul-23 11:33N 58°28' E 019°44'8 8.0
2014-Jul-23 10:33N 58°33' E 019°57'16 8.1
2014-Jul-23 08:33N 58°43' E 020°22'33 8.3
2014-Jul-23 04:33N 59°02' E 021°14'8 8.2
2014-Jul-23 03:34N 59°07' E 021°26'8 7.9
2014-Jul-23 02:33N 59°12' E 021°39'8 8.0
2014-Jul-23 01:33N 59°17' E 021°51'16 7.9
2014-Jul-22 23:34N 59°26' E 022°17'8 7.7
2014-Jul-22 22:33N 59°30' E 022°29'8 7.8
2014-Jul-22 21:34N 59°32' E 022°44'17 8.2
2014-Jul-22 19:27N 59°37' E 023°17'7 8.1
2014-Jul-22 18:34N 59°39' E 023°30'9 8.1
2014-Jul-22 17:29N 59°42' E 023°47'8 8.0
2014-Jul-22 16:32N 59°44' E 024°02'8 8.4
2014-Jul-22 15:32N 59°46' E 024°17'60 8.4
2014-Jul-22 08:23N 59°59' E 026°15'7 8.1
2014-Jul-22 07:32N 60°01' E 026°28'113 7.5
2014-Jul-21 16:33N 59°54' E 030°13'1 1.3
2014-Jul-21 15:31N 59°55' E 030°15'0 0.0
2014-Jul-21 14:31N 59°55' E 030°15'0 0.0
2014-Jul-21 13:31N 59°55' E 030°15'0 0.0
2014-Jul-21 12:31N 59°55' E 030°15'1 0.6
2014-Jul-21 11:33N 59°55' E 030°16'1 0.7
2014-Jul-21 10:28N 59°56' E 030°17'0 0.0
2014-Jul-21 09:28N 59°56' E 030°17'0 0.0
2014-Jul-21 08:25N 59°56' E 030°17'0 0.0
2014-Jul-21 07:25N 59°56' E 030°17'0 0.0
2014-Jul-21 06:31N 59°56' E 030°17'0 0.0
2014-Jul-21 05:28N 59°56' E 030°17'0 0.0
2014-Jul-21 04:31N 59°56' E 030°17'0 0.0
2014-Jul-21 03:33N 59°56' E 030°17'0 0.0
2014-Jul-21 02:33N 59°56' E 030°17'0 0.0
2014-Jul-21 01:33N 59°56' E 030°17'0 0.0
2014-Jul-21 00:33N 59°56' E 030°17'  
Track history (hours):
 
Tides and Currents Weather Stations Pressure Air Temp Water Temp Dewpoint Dewpoint Depression Visibility Wind Speed Wind Dir Waves Ship Positions

Volgo-balt 229

Last reported at 2014-Jul-27 21:26 UTC. Time now 2014-Jul-28 10:27 UTC.
Position N 59°56' E 030°17'.

Length 113 m; draft 2.6 m.

Type: Ship. MMSI: 273336300.

Date/timePositionNaut miles runAvg speedWind from/ knotsBaromVisibWave heightAir tempDewpointWater temp
2014-Jul-27 21:26N 59°56' E 030°17'0 0.0
2014-Jul-27 20:29N 59°56' E 030°17'0 0.0
2014-Jul-27 19:32N 59°56' E 030°17'0 0.0
2014-Jul-27 18:32N 59°56' E 030°17'0 0.0
2014-Jul-27 17:32N 59°56' E 030°17'0 0.0
2014-Jul-27 16:29N 59°56' E 030°17'0 0.0
2014-Jul-27 15:32N 59°56' E 030°17'0 0.0
2014-Jul-27 14:32N 59°56' E 030°17'0 0.0
2014-Jul-27 13:32N 59°56' E 030°17'0 0.0
2014-Jul-27 12:32N 59°56' E 030°17'2 2.3
2014-Jul-27 11:33N 59°54' E 030°14'0 0.0
2014-Jul-27 10:30N 59°54' E 030°14'0 0.0
2014-Jul-27 09:33N 59°54' E 030°14'1 0.9
2014-Jul-27 08:32N 59°55' E 030°15'1 1.3
2014-Jul-27 07:33N 59°55' E 030°13'66 7.8
2014-Jul-26 23:04N 60°08' E 028°03'4 8.0
2014-Jul-26 22:33N 60°09' E 027°55'6 5.7
2014-Jul-26 21:27N 60°09' E 027°42'5 5.9
2014-Jul-26 20:33N 60°06' E 027°33'9 5.9
2014-Jul-26 19:06N 60°02' E 027°19'4 7.8
2014-Jul-26 18:33N 59°60' E 027°11'8 8.0
2014-Jul-26 17:33N 59°58' E 026°56'8 8.4
2014-Jul-26 16:33N 59°59' E 026°39'8 8.2
2014-Jul-26 15:33N 59°57' E 026°23'8 7.9
2014-Jul-26 14:33N 59°54' E 026°08'8 8.2
2014-Jul-26 13:33N 59°52' E 025°52'8 8.4
2014-Jul-26 12:33N 59°50' E 025°36'8 8.5
2014-Jul-26 11:33N 59°49' E 025°19'9 8.5
2014-Jul-26 10:32N 59°47' E 025°03'8 8.6
2014-Jul-26 09:33N 59°45' E 024°46'8 8.4
2014-Jul-26 08:33N 59°43' E 024°30'8 8.4
2014-Jul-26 07:33N 59°41' E 024°14'9 8.5
2014-Jul-26 06:33N 59°38' E 023°58'8 8.1
2014-Jul-26 05:33N 59°36' E 023°43'8 8.1
2014-Jul-26 04:33N 59°33' E 023°28'8 8.4
2014-Jul-26 03:33N 59°30' E 023°12'9 8.7
2014-Jul-26 02:33N 59°27' E 022°56'9 8.6
2014-Jul-26 01:33N 59°25' E 022°40'8 8.4
2014-Jul-26 00:33N 59°20' E 022°26'16 8.2
2014-Jul-25 22:33N 59°10' E 022°01'8 8.2
2014-Jul-25 21:33N 59°04' E 021°49'8 8.0
2014-Jul-25 20:33N 58°59' E 021°38'9 7.9
2014-Jul-25 19:22N 58°53' E 021°23'6 7.7
2014-Jul-25 18:33N 58°51' E 021°12'8 7.9
2014-Jul-25 17:33N 58°47' E 020°58'8 8.0
2014-Jul-25 16:33N 58°44' E 020°45'7 6.7
2014-Jul-25 15:32N 58°40' E 020°34'8 8.3
2014-Jul-25 14:33N 58°36' E 020°20'8 8.0
2014-Jul-25 13:33N 58°33' E 020°06'8 7.8
2014-Jul-25 12:33N 58°29' E 019°53'8 7.6
2014-Jul-25 11:33N 58°25' E 019°41'8 7.7
2014-Jul-25 10:33N 58°21' E 019°28'8 7.8
2014-Jul-25 09:33N 58°17' E 019°15'8 7.9
2014-Jul-25 08:33N 58°13' E 019°03'8 8.0
2014-Jul-25 07:33N 58°08' E 018°50'8 7.9
2014-Jul-25 06:33N 58°04' E 018°38'8 8.2
2014-Jul-25 05:33N 57°59' E 018°25'8 8.0
2014-Jul-25 04:33N 57°55' E 018°13'8 8.2
2014-Jul-25 03:33N 57°50' E 017°60'9 8.2
2014-Jul-25 02:29N 57°45' E 017°46'8 8.2
2014-Jul-25 01:33N 57°41' E 017°35'8 8.1
2014-Jul-25 00:33N 57°36' E 017°23'8 8.0
2014-Jul-24 23:33N 57°31' E 017°10'8 8.1
2014-Jul-24 22:33N 57°26' E 016°60'8 8.2
2014-Jul-24 21:33N 57°19' E 016°50'8 8.0
2014-Jul-24 20:33N 57°13' E 016°41'8 7.5
2014-Jul-24 19:33N 57°07' E 016°33'1 0.6
2014-Jul-24 18:32N 57°06' E 016°33'0 0.0
2014-Jul-24 17:32N 57°06' E 016°33'0 0.0
2014-Jul-24 16:32N 57°06' E 016°33'0 0.0
2014-Jul-24 15:32N 57°06' E 016°33'0 0.0
2014-Jul-24 14:32N 57°06' E 016°33'0 0.0
2014-Jul-24 13:32N 57°06' E 016°33'0 0.0
2014-Jul-24 12:32N 57°06' E 016°33'0 0.0
2014-Jul-24 11:32N 57°06' E 016°33'0 0.0
2014-Jul-24 10:32N 57°06' E 016°33'0 0.0
2014-Jul-24 09:32N 57°06' E 016°33'0 0.0
2014-Jul-24 08:32N 57°06' E 016°33'0 0.0
2014-Jul-24 07:32N 57°06' E 016°33'0 0.0
2014-Jul-24 06:32N 57°06' E 016°33'0 0.0
2014-Jul-24 05:32N 57°06' E 016°33'1 1.0
2014-Jul-24 04:34N 57°07' E 016°33'5 5.2
2014-Jul-24 03:33N 57°11' E 016°38'5 5.1
2014-Jul-24 02:34N 57°15' E 016°44'8 8.0
2014-Jul-24 01:34N 57°22' E 016°53'8 8.0
2014-Jul-24 00:33N 57°28' E 017°02'8 7.9
2014-Jul-23 23:34N 57°33' E 017°14'8 8.1
2014-Jul-23 22:34N 57°37' E 017°26'8 8.0
2014-Jul-23 21:34N 57°42' E 017°38'8 7.9
2014-Jul-23 20:33N 57°46' E 017°51'8 7.9
2014-Jul-23 19:33N 57°51' E 018°03'8 7.9
2014-Jul-23 18:33N 57°55' E 018°15'8 8.1
2014-Jul-23 17:34N 58°00' E 018°27'8 8.2
2014-Jul-23 16:33N 58°05' E 018°40'8 8.3
2014-Jul-23 15:33N 58°09' E 018°53'8 8.3
2014-Jul-23 14:33N 58°14' E 019°06'8 8.3
2014-Jul-23 13:34N 58°19' E 019°19'8 8.1
2014-Jul-23 12:34N 58°24' E 019°32'8 8.1
2014-Jul-23 11:33N 58°28' E 019°44'8 8.0
2014-Jul-23 10:33N 58°33' E 019°57'16 8.1
2014-Jul-23 08:33N 58°43' E 020°22'33 8.3
2014-Jul-23 04:33N 59°02' E 021°14'8 8.2
2014-Jul-23 03:34N 59°07' E 021°26'8 7.9
2014-Jul-23 02:33N 59°12' E 021°39'8 8.0
2014-Jul-23 01:33N 59°17' E 021°51'16 7.9
2014-Jul-22 23:34N 59°26' E 022°17'8 7.7
2014-Jul-22 22:33N 59°30' E 022°29'8 7.8
2014-Jul-22 21:34N 59°32' E 022°44'17 8.2
2014-Jul-22 19:27N 59°37' E 023°17'7 8.1
2014-Jul-22 18:34N 59°39' E 023°30'9 8.1
2014-Jul-22 17:29N 59°42' E 023°47'8 8.0
2014-Jul-22 16:32N 59°44' E 024°02'8 8.4
2014-Jul-22 15:32N 59°46' E 024°17'60 8.4
2014-Jul-22 08:23N 59°59' E 026°15'7 8.1
2014-Jul-22 07:32N 60°01' E 026°28'113 7.5
2014-Jul-21 16:33N 59°54' E 030°13'1 1.3
2014-Jul-21 15:31N 59°55' E 030°15'0 0.0
2014-Jul-21 14:31N 59°55' E 030°15'0 0.0
2014-Jul-21 13:31N 59°55' E 030°15'0 0.0
2014-Jul-21 12:31N 59°55' E 030°15'1 0.6
2014-Jul-21 11:33N 59°55' E 030°16'1 0.7
2014-Jul-21 10:28N 59°56' E 030°17'0 0.0
2014-Jul-21 09:28N 59°56' E 030°17'0 0.0
2014-Jul-21 08:25N 59°56' E 030°17'0 0.0
2014-Jul-21 07:25N 59°56' E 030°17'0 0.0
2014-Jul-21 06:31N 59°56' E 030°17'0 0.0
2014-Jul-21 05:28N 59°56' E 030°17'0 0.0
2014-Jul-21 04:31N 59°56' E 030°17'0 0.0
2014-Jul-21 03:33N 59°56' E 030°17'0 0.0
2014-Jul-21 02:33N 59°56' E 030°17'0 0.0
2014-Jul-21 01:33N 59°56' E 030°17'0 0.0
2014-Jul-21 00:33N 59°56' E 030°17'  

Dump ship's entire track history